Disclaimer

Please do not use the information listed here in-flight or in-navigation, as they are not provided to us by the airports but are provided by volunteers, so they might be outdated.

Search


Regions


Airport information page

Radio informations:
DAKAR TWR - 118.1 MHz
DAKAR INFO - 129.5 MHz
DAKAR CON - 120.5 MHz

Airport informations:
Latitude: 14° 44' 22.95" N
Longitude: 017° 29' 24.81" W
Elevation: 85 feet - 26 meters
Operating hours: 24 hour operations
Operating agency: Military-civil joint use airport
Timezone: UTC 0
Fuel: Jet A1, without icing nhibitor.

100/130 MIL Spec, low lead, aviation gasoline (BLUE)

Runway information:
03/21 - 4921 x 98 feet< - >1500 x 30 meters
18/36 - 11450 x 148 feet< - >3490 x 45 meters

Recent METARs:
GOOY 160100Z 36012KT 8000 NSC 22/18 Q1018
GOOY 160100Z 36012KT 8000 NSC 22/18 Q1018
GOOY 160300Z 36010KT 8000 NSC 22/18 Q1017

Airport on the map: